sensor_id;sensor_type;location;lat;lon;timestamp;P1;durP1;ratioP1;P2;durP2;ratioP2
11066;SDS011;29763;50.904;5.530;2023-07-13T00:00:00;3.22;;;1.90;;
11066;SDS011;29763;50.904;5.530;2023-07-13T00:02:34;4.65;;;1.98;;
11066;SDS011;29763;50.904;5.530;2023-07-13T00:05:03;5.05;;;2.10;;
11066;SDS011;29763;50.904;5.530;2023-07-13T00:07:40;6.43;;;1.90;;
11066;SDS011;29763;50.904;5.530;2023-07-13T00:10:07;4.25;;;1.95;;
11066;SDS011;29763;50.904;5.530;2023-07-13T00:12:45;3.85;;;1.98;;
11066;SDS011;29763;50.904;5.530;2023-07-13T00:15:18;3.08;;;1.70;;
11066;SDS011;29763;50.904;5.530;2023-07-13T00:18:03;3.17;;;1.50;;
11066;SDS011;29763;50.904;5.530;2023-07-13T00:21:01;2.25;;;1.55;;
11066;SDS011;29763;50.904;5.530;2023-07-13T00:23:37;1.92;;;1.50;;
11066;SDS011;29763;50.904;5.530;2023-07-13T00:26:17;3.75;;;1.80;;
11066;SDS011;29763;50.904;5.530;2023-07-13T00:28:45;3.50;;;1.88;;
11066;SDS011;29763;50.904;5.530;2023-07-13T00:31:12;3.75;;;1.70;;
11066;SDS011;29763;50.904;5.530;2023-07-13T00:33:44;3.72;;;1.90;;
11066;SDS011;29763;50.904;5.530;2023-07-13T00:36:20;2.97;;;1.65;;
11066;SDS011;29763;50.904;5.530;2023-07-13T00:38:46;7.20;;;2.13;;
11066;SDS011;29763;50.904;5.530;2023-07-13T00:41:16;5.00;;;2.10;;
11066;SDS011;29763;50.904;5.530;2023-07-13T00:43:54;4.75;;;2.03;;
11066;SDS011;29763;50.904;5.530;2023-07-13T00:46:36;7.22;;;2.13;;
11066;SDS011;29763;50.904;5.530;2023-07-13T00:49:06;6.85;;;2.10;;
11066;SDS011;29763;50.904;5.530;2023-07-13T00:51:45;5.47;;;2.05;;
11066;SDS011;29763;50.904;5.530;2023-07-13T00:54:35;6.75;;;2.20;;
11066;SDS011;29763;50.904;5.530;2023-07-13T00:57:18;4.78;;;1.83;;
11066;SDS011;29763;50.904;5.530;2023-07-13T00:59:51;6.20;;;2.38;;
11066;SDS011;29763;50.904;5.530;2023-07-13T01:02:20;5.18;;;2.20;;
11066;SDS011;29763;50.904;5.530;2023-07-13T01:05:20;3.85;;;2.45;;
11066;SDS011;29763;50.904;5.530;2023-07-13T01:07:48;5.28;;;2.10;;
11066;SDS011;29763;50.904;5.530;2023-07-13T01:10:17;3.85;;;1.80;;
11066;SDS011;29763;50.904;5.530;2023-07-13T01:12:46;4.85;;;1.90;;
11066;SDS011;29763;50.904;5.530;2023-07-13T01:18:06;4.88;;;2.00;;
11066;SDS011;29763;50.904;5.530;2023-07-13T01:20:35;6.22;;;2.10;;
11066;SDS011;29763;50.904;5.530;2023-07-13T01:26:33;4.07;;;2.00;;
11066;SDS011;29763;50.904;5.530;2023-07-13T01:29:09;5.10;;;1.90;;
11066;SDS011;29763;50.904;5.530;2023-07-13T01:32:14;3.15;;;1.88;;
11066;SDS011;29763;50.904;5.530;2023-07-13T01:34:48;4.00;;;1.98;;
11066;SDS011;29763;50.904;5.530;2023-07-13T01:43:27;5.45;;;1.73;;
11066;SDS011;29763;50.904;5.530;2023-07-13T02:00:41;7.40;;;2.38;;
11066;SDS011;29763;50.904;5.530;2023-07-13T02:07:17;4.28;;;2.00;;
11066;SDS011;29763;50.904;5.530;2023-07-13T02:10:10;5.43;;;2.40;;
11066;SDS011;29763;50.904;5.530;2023-07-13T02:24:45;2.85;;;2.08;;
11066;SDS011;29763;50.904;5.530;2023-07-13T02:32:13;5.40;;;2.38;;
11066;SDS011;29763;50.904;5.530;2023-07-13T02:35:41;5.65;;;2.35;;
11066;SDS011;29763;50.904;5.530;2023-07-13T02:38:19;4.00;;;2.25;;
11066;SDS011;29763;50.904;5.530;2023-07-13T02:44:20;5.38;;;2.45;;
11066;SDS011;29763;50.904;5.530;2023-07-13T02:47:12;4.85;;;2.45;;
11066;SDS011;29763;50.904;5.530;2023-07-13T02:49:38;4.75;;;2.70;;
11066;SDS011;29763;50.904;5.530;2023-07-13T02:52:07;6.25;;;2.45;;
11066;SDS011;29763;50.904;5.530;2023-07-13T02:54:33;8.00;;;2.65;;
11066;SDS011;29763;50.904;5.530;2023-07-13T02:56:59;8.95;;;2.75;;
11066;SDS011;29763;50.904;5.530;2023-07-13T02:59:25;9.77;;;3.03;;
11066;SDS011;29763;50.904;5.530;2023-07-13T03:01:52;4.43;;;3.00;;
11066;SDS011;29763;50.904;5.530;2023-07-13T03:04:20;6.90;;;3.10;;
11066;SDS011;29763;50.904;5.530;2023-07-13T03:06:46;6.10;;;2.75;;
11066;SDS011;29763;50.904;5.530;2023-07-13T03:09:13;6.30;;;3.00;;
11066;SDS011;29763;50.904;5.530;2023-07-13T03:11:39;7.22;;;2.97;;
11066;SDS011;29763;50.904;5.530;2023-07-13T03:14:05;6.57;;;3.15;;
11066;SDS011;29763;50.904;5.530;2023-07-13T03:16:32;9.73;;;3.20;;
11066;SDS011;29763;50.904;5.530;2023-07-13T03:18:58;5.45;;;3.00;;
11066;SDS011;29763;50.904;5.530;2023-07-13T03:21:24;6.05;;;2.72;;
11066;SDS011;29763;50.904;5.530;2023-07-13T03:23:50;7.60;;;2.95;;
11066;SDS011;29763;50.904;5.530;2023-07-13T03:26:17;6.70;;;2.58;;
11066;SDS011;29763;50.904;5.530;2023-07-13T03:28:44;6.85;;;3.13;;
11066;SDS011;29763;50.904;5.530;2023-07-13T03:31:12;8.80;;;3.40;;
11066;SDS011;29763;50.904;5.530;2023-07-13T03:33:44;8.20;;;3.15;;
11066;SDS011;29763;50.904;5.530;2023-07-13T03:36:12;6.07;;;3.00;;
11066;SDS011;29763;50.904;5.530;2023-07-13T03:38:41;7.25;;;3.00;;
11066;SDS011;29763;50.904;5.530;2023-07-13T03:41:07;9.65;;;3.90;;
11066;SDS011;29763;50.904;5.530;2023-07-13T03:43:33;9.50;;;3.65;;
11066;SDS011;29763;50.904;5.530;2023-07-13T04:13:19;5.53;;;3.03;;
11066;SDS011;29763;50.904;5.530;2023-07-13T04:15:58;7.55;;;3.67;;
11066;SDS011;29763;50.904;5.530;2023-07-13T04:18:27;8.82;;;3.50;;
11066;SDS011;29763;50.904;5.530;2023-07-13T04:21:09;8.98;;;3.75;;
11066;SDS011;29763;50.904;5.530;2023-07-13T04:23:53;10.52;;;3.97;;
11066;SDS011;29763;50.904;5.530;2023-07-13T04:29:10;9.85;;;3.55;;
11066;SDS011;29763;50.904;5.530;2023-07-13T04:31:40;8.75;;;3.20;;
11066;SDS011;29763;50.904;5.530;2023-07-13T04:34:14;8.55;;;3.30;;
11066;SDS011;29763;50.904;5.530;2023-07-13T04:36:46;7.68;;;3.10;;
11066;SDS011;29763;50.904;5.530;2023-07-13T04:39:18;7.70;;;3.35;;
11066;SDS011;29763;50.904;5.530;2023-07-13T04:41:57;7.72;;;3.28;;
11066;SDS011;29763;50.904;5.530;2023-07-13T04:44:30;6.75;;;3.28;;
11066;SDS011;29763;50.904;5.530;2023-07-13T04:47:02;8.57;;;3.67;;
11066;SDS011;29763;50.904;5.530;2023-07-13T04:49:42;8.02;;;2.88;;
11066;SDS011;29763;50.904;5.530;2023-07-13T04:52:18;11.32;;;3.25;;
11066;SDS011;29763;50.904;5.530;2023-07-13T04:54:47;8.93;;;3.10;;
11066;SDS011;29763;50.904;5.530;2023-07-13T04:57:16;5.20;;;3.00;;
11066;SDS011;29763;50.904;5.530;2023-07-13T04:59:43;8.10;;;2.95;;
11066;SDS011;29763;50.904;5.530;2023-07-13T05:02:11;8.57;;;3.15;;
11066;SDS011;29763;50.904;5.530;2023-07-13T05:04:42;9.02;;;3.30;;
11066;SDS011;29763;50.904;5.530;2023-07-13T05:07:14;7.85;;;3.10;;
11066;SDS011;29763;50.904;5.530;2023-07-13T05:09:57;7.97;;;3.35;;
11066;SDS011;29763;50.904;5.530;2023-07-13T05:12:37;9.23;;;3.40;;
11066;SDS011;29763;50.904;5.530;2023-07-13T05:15:24;7.18;;;3.05;;
11066;SDS011;29763;50.904;5.530;2023-07-13T05:18:18;7.68;;;3.20;;
11066;SDS011;29763;50.904;5.530;2023-07-13T05:20:44;8.43;;;3.30;;
11066;SDS011;29763;50.904;5.530;2023-07-13T05:23:11;8.15;;;3.40;;
11066;SDS011;29763;50.904;5.530;2023-07-13T05:25:46;9.98;;;3.63;;
11066;SDS011;29763;50.904;5.530;2023-07-13T05:28:19;6.22;;;2.67;;
11066;SDS011;29763;50.904;5.530;2023-07-13T05:30:49;8.73;;;3.20;;
11066;SDS011;29763;50.904;5.530;2023-07-13T05:33:19;8.05;;;3.10;;
11066;SDS011;29763;50.904;5.530;2023-07-13T05:36:09;9.90;;;3.63;;
11066;SDS011;29763;50.904;5.530;2023-07-13T05:38:35;10.88;;;3.60;;
11066;SDS011;29763;50.904;5.530;2023-07-13T05:41:10;8.05;;;3.50;;
11066;SDS011;29763;50.904;5.530;2023-07-13T05:43:46;9.20;;;3.35;;
11066;SDS011;29763;50.904;5.530;2023-07-13T05:46:32;7.45;;;3.08;;
11066;SDS011;29763;50.904;5.530;2023-07-13T05:49:11;8.20;;;3.60;;
11066;SDS011;29763;50.904;5.530;2023-07-13T05:51:41;9.65;;;3.53;;
11066;SDS011;29763;50.904;5.530;2023-07-13T05:54:07;7.15;;;3.38;;
11066;SDS011;29763;50.904;5.530;2023-07-13T05:56:43;9.73;;;3.63;;
11066;SDS011;29763;50.904;5.530;2023-07-13T05:59:18;9.18;;;3.55;;
11066;SDS011;29763;50.904;5.530;2023-07-13T06:01:48;9.43;;;3.25;;
11066;SDS011;29763;50.904;5.530;2023-07-13T06:04:19;6.50;;;3.45;;
11066;SDS011;29763;50.904;5.530;2023-07-13T06:10:52;10.30;;;3.70;;
11066;SDS011;29763;50.904;5.530;2023-07-13T06:13:32;9.60;;;3.20;;
11066;SDS011;29763;50.904;5.530;2023-07-13T06:17:00;10.68;;;3.78;;
11066;SDS011;29763;50.904;5.530;2023-07-13T06:19:44;10.48;;;3.45;;
11066;SDS011;29763;50.904;5.530;2023-07-13T06:25:52;8.25;;;3.30;;
11066;SDS011;29763;50.904;5.530;2023-07-13T06:28:47;7.80;;;3.50;;
11066;SDS011;29763;50.904;5.530;2023-07-13T06:35:17;10.20;;;4.20;;
11066;SDS011;29763;50.904;5.530;2023-07-13T06:44:13;8.82;;;3.72;;
11066;SDS011;29763;50.904;5.530;2023-07-13T06:47:45;11.05;;;4.07;;
11066;SDS011;29763;50.904;5.530;2023-07-13T06:51:02;10.80;;;3.67;;
11066;SDS011;29763;50.904;5.530;2023-07-13T06:56:56;11.05;;;3.72;;
11066;SDS011;29763;50.904;5.530;2023-07-13T06:59:23;9.60;;;4.03;;
11066;SDS011;29763;50.904;5.530;2023-07-13T07:08:38;8.02;;;3.70;;
11066;SDS011;29763;50.904;5.530;2023-07-13T07:11:11;8.13;;;3.30;;
11066;SDS011;29763;50.904;5.530;2023-07-13T07:13:40;11.25;;;3.80;;
11066;SDS011;29763;50.904;5.530;2023-07-13T07:16:06;12.07;;;3.67;;
11066;SDS011;29763;50.904;5.530;2023-07-13T07:18:34;10.82;;;3.55;;
11066;SDS011;29763;50.904;5.530;2023-07-13T07:21:04;10.30;;;3.92;;
11066;SDS011;29763;50.904;5.530;2023-07-13T07:24:15;10.63;;;3.47;;
11066;SDS011;29763;50.904;5.530;2023-07-13T07:26:50;10.63;;;3.58;;
11066;SDS011;29763;50.904;5.530;2023-07-13T07:29:22;8.55;;;3.58;;
11066;SDS011;29763;50.904;5.530;2023-07-13T07:31:51;9.18;;;3.50;;
11066;SDS011;29763;50.904;5.530;2023-07-13T07:34:43;9.88;;;3.83;;
11066;SDS011;29763;50.904;5.530;2023-07-13T07:37:13;10.02;;;3.35;;
11066;SDS011;29763;50.904;5.530;2023-07-13T07:39:43;8.98;;;3.60;;
11066;SDS011;29763;50.904;5.530;2023-07-13T07:42:14;11.02;;;3.55;;
11066;SDS011;29763;50.904;5.530;2023-07-13T07:44:49;9.70;;;3.63;;
11066;SDS011;29763;50.904;5.530;2023-07-13T07:47:31;10.27;;;3.53;;
11066;SDS011;29763;50.904;5.530;2023-07-13T07:49:59;10.77;;;3.88;;
11066;SDS011;29763;50.904;5.530;2023-07-13T07:52:57;9.95;;;3.25;;
11066;SDS011;29763;50.904;5.530;2023-07-13T07:55:41;10.95;;;3.58;;
11066;SDS011;29763;50.904;5.530;2023-07-13T07:58:07;10.95;;;3.67;;
11066;SDS011;29763;50.904;5.530;2023-07-13T08:00:40;10.88;;;3.67;;
11066;SDS011;29763;50.904;5.530;2023-07-13T08:03:13;10.27;;;3.80;;
11066;SDS011;29763;50.904;5.530;2023-07-13T08:05:41;9.32;;;3.85;;
11066;SDS011;29763;50.904;5.530;2023-07-13T08:08:07;9.38;;;3.85;;
11066;SDS011;29763;50.904;5.530;2023-07-13T08:10:37;9.38;;;3.28;;
11066;SDS011;29763;50.904;5.530;2023-07-13T08:13:11;9.45;;;3.67;;
11066;SDS011;29763;50.904;5.530;2023-07-13T08:15:57;7.82;;;3.30;;
11066;SDS011;29763;50.904;5.530;2023-07-13T08:18:38;7.97;;;3.60;;
11066;SDS011;29763;50.904;5.530;2023-07-13T08:21:13;9.38;;;3.22;;
11066;SDS011;29763;50.904;5.530;2023-07-13T08:26:31;8.60;;;3.30;;
11066;SDS011;29763;50.904;5.530;2023-07-13T08:29:18;7.60;;;3.40;;
11066;SDS011;29763;50.904;5.530;2023-07-13T08:31:52;6.78;;;3.30;;
11066;SDS011;29763;50.904;5.530;2023-07-13T08:34:23;7.55;;;2.88;;
11066;SDS011;29763;50.904;5.530;2023-07-13T08:36:59;7.20;;;3.08;;
11066;SDS011;29763;50.904;5.530;2023-07-13T08:39:31;8.05;;;2.85;;
11066;SDS011;29763;50.904;5.530;2023-07-13T08:42:00;9.07;;;3.38;;
11066;SDS011;29763;50.904;5.530;2023-07-13T08:44:40;11.13;;;3.17;;
11066;SDS011;29763;50.904;5.530;2023-07-13T08:47:35;7.57;;;2.97;;
11066;SDS011;29763;50.904;5.530;2023-07-13T08:50:17;8.60;;;2.97;;
11066;SDS011;29763;50.904;5.530;2023-07-13T08:52:48;9.48;;;3.20;;
11066;SDS011;29763;50.904;5.530;2023-07-13T08:55:37;8.63;;;3.13;;
11066;SDS011;29763;50.904;5.530;2023-07-13T08:58:11;7.28;;;3.28;;
11066;SDS011;29763;50.904;5.530;2023-07-13T09:07:17;7.30;;;3.08;;
11066;SDS011;29763;50.904;5.530;2023-07-13T09:16:22;7.03;;;2.83;;
11066;SDS011;29763;50.904;5.530;2023-07-13T09:22:16;5.82;;;2.53;;
11066;SDS011;29763;50.904;5.530;2023-07-13T09:25:32;8.98;;;2.92;;
11066;SDS011;29763;50.904;5.530;2023-07-13T09:28:31;6.10;;;3.03;;
11066;SDS011;29763;50.904;5.530;2023-07-13T09:31:19;8.90;;;2.75;;
11066;SDS011;29763;50.904;5.530;2023-07-13T09:34:18;5.85;;;2.75;;
11066;SDS011;29763;50.904;5.530;2023-07-13T09:36:51;8.57;;;2.78;;
11066;SDS011;29763;50.904;5.530;2023-07-13T09:39:49;4.90;;;2.60;;
11066;SDS011;29763;50.904;5.530;2023-07-13T09:42:40;5.38;;;2.70;;
11066;SDS011;29763;50.904;5.530;2023-07-13T09:48:52;6.40;;;2.80;;
11066;SDS011;29763;50.904;5.530;2023-07-13T09:51:46;6.32;;;2.70;;
11066;SDS011;29763;50.904;5.530;2023-07-13T09:54:36;6.05;;;2.55;;
11066;SDS011;29763;50.904;5.530;2023-07-13T09:57:24;4.93;;;2.60;;
11066;SDS011;29763;50.904;5.530;2023-07-13T09:59:59;7.05;;;2.83;;
11066;SDS011;29763;50.904;5.530;2023-07-13T10:05:42;6.65;;;2.67;;
11066;SDS011;29763;50.904;5.530;2023-07-13T10:08:17;6.57;;;2.70;;
11066;SDS011;29763;50.904;5.530;2023-07-13T10:14:01;5.22;;;2.85;;
11066;SDS011;29763;50.904;5.530;2023-07-13T10:20:23;5.78;;;2.72;;
11066;SDS011;29763;50.904;5.530;2023-07-13T10:23:02;5.63;;;2.03;;
11066;SDS011;29763;50.904;5.530;2023-07-13T10:25:57;5.78;;;2.53;;
11066;SDS011;29763;50.904;5.530;2023-07-13T10:28:56;4.88;;;2.40;;
11066;SDS011;29763;50.904;5.530;2023-07-13T10:31:51;5.65;;;2.22;;
11066;SDS011;29763;50.904;5.530;2023-07-13T10:34:35;4.38;;;2.33;;
11066;SDS011;29763;50.904;5.530;2023-07-13T10:37:05;5.65;;;2.40;;
11066;SDS011;29763;50.904;5.530;2023-07-13T10:42:51;3.50;;;1.90;;
11066;SDS011;29763;50.904;5.530;2023-07-13T10:46:07;4.93;;;2.50;;
11066;SDS011;29763;50.904;5.530;2023-07-13T10:48:48;3.28;;;1.80;;
11066;SDS011;29763;50.904;5.530;2023-07-13T10:54:33;5.15;;;2.33;;
11066;SDS011;29763;50.904;5.530;2023-07-13T11:02:57;4.60;;;2.15;;
11066;SDS011;29763;50.904;5.530;2023-07-13T11:05:39;5.35;;;2.20;;
11066;SDS011;29763;50.904;5.530;2023-07-13T11:20:36;4.35;;;1.88;;
11066;SDS011;29763;50.904;5.530;2023-07-13T11:29:45;3.83;;;2.20;;
11066;SDS011;29763;50.904;5.530;2023-07-13T11:32:24;4.82;;;2.20;;
11066;SDS011;29763;50.904;5.530;2023-07-13T11:37:46;6.00;;;2.30;;
11066;SDS011;29763;50.904;5.530;2023-07-13T11:40:18;4.47;;;2.53;;
11066;SDS011;29763;50.904;5.530;2023-07-13T11:43:03;5.22;;;2.65;;
11066;SDS011;29763;50.904;5.530;2023-07-13T11:45:37;7.60;;;2.70;;
11066;SDS011;29763;50.904;5.530;2023-07-13T11:51:26;2.83;;;1.80;;
11066;SDS011;29763;50.904;5.530;2023-07-13T11:54:21;3.95;;;2.08;;
11066;SDS011;29763;50.904;5.530;2023-07-13T11:59:58;3.15;;;2.08;;
11066;SDS011;29763;50.904;5.530;2023-07-13T12:05:29;5.68;;;2.30;;
11066;SDS011;29763;50.904;5.530;2023-07-13T12:08:09;3.03;;;1.75;;
11066;SDS011;29763;50.904;5.530;2023-07-13T12:10:38;3.83;;;1.95;;
11066;SDS011;29763;50.904;5.530;2023-07-13T12:13:17;3.90;;;2.10;;
11066;SDS011;29763;50.904;5.530;2023-07-13T12:15:45;5.45;;;2.22;;
11066;SDS011;29763;50.904;5.530;2023-07-13T12:18:21;4.40;;;1.98;;
11066;SDS011;29763;50.904;5.530;2023-07-13T12:20:59;4.78;;;1.98;;
11066;SDS011;29763;50.904;5.530;2023-07-13T12:23:29;3.25;;;1.85;;
11066;SDS011;29763;50.904;5.530;2023-07-13T12:26:07;3.80;;;2.00;;
11066;SDS011;29763;50.904;5.530;2023-07-13T12:28:58;3.10;;;2.00;;
11066;SDS011;29763;50.904;5.530;2023-07-13T12:31:44;3.03;;;2.10;;
11066;SDS011;29763;50.904;5.530;2023-07-13T12:34:27;4.72;;;2.17;;
11066;SDS011;29763;50.904;5.530;2023-07-13T12:37:08;2.83;;;1.98;;
11066;SDS011;29763;50.904;5.530;2023-07-13T12:40:12;2.40;;;1.60;;
11066;SDS011;29763;50.904;5.530;2023-07-13T12:42:57;3.80;;;2.00;;
11066;SDS011;29763;50.904;5.530;2023-07-13T12:46:14;2.50;;;1.77;;
11066;SDS011;29763;50.904;5.530;2023-07-13T12:48:56;3.35;;;1.77;;
11066;SDS011;29763;50.904;5.530;2023-07-13T12:51:49;6.03;;;2.05;;
11066;SDS011;29763;50.904;5.530;2023-07-13T12:54:17;4.13;;;1.95;;
11066;SDS011;29763;50.904;5.530;2023-07-13T12:57:01;2.88;;;2.00;;
11066;SDS011;29763;50.904;5.530;2023-07-13T12:59:44;3.08;;;1.80;;
11066;SDS011;29763;50.904;5.530;2023-07-13T13:02:38;4.68;;;2.05;;
11066;SDS011;29763;50.904;5.530;2023-07-13T13:05:06;4.43;;;1.90;;
11066;SDS011;29763;50.904;5.530;2023-07-13T13:07:37;3.55;;;1.90;;
11066;SDS011;29763;50.904;5.530;2023-07-13T13:10:16;4.28;;;2.10;;
11066;SDS011;29763;50.904;5.530;2023-07-13T13:12:43;3.60;;;1.80;;
11066;SDS011;29763;50.904;5.530;2023-07-13T13:15:12;4.10;;;1.70;;
11066;SDS011;29763;50.904;5.530;2023-07-13T13:17:39;2.97;;;1.60;;
11066;SDS011;29763;50.904;5.530;2023-07-13T13:20:21;3.92;;;1.85;;
11066;SDS011;29763;50.904;5.530;2023-07-13T13:23:08;2.75;;;1.75;;
11066;SDS011;29763;50.904;5.530;2023-07-13T13:25:51;4.32;;;1.80;;
11066;SDS011;29763;50.904;5.530;2023-07-13T13:28:20;2.75;;;2.00;;
11066;SDS011;29763;50.904;5.530;2023-07-13T13:30:52;4.50;;;1.80;;
11066;SDS011;29763;50.904;5.530;2023-07-13T13:33:53;4.22;;;2.00;;
11066;SDS011;29763;50.904;5.530;2023-07-13T13:36:46;2.85;;;1.73;;
11066;SDS011;29763;50.904;5.530;2023-07-13T13:39:40;4.25;;;1.90;;
11066;SDS011;29763;50.904;5.530;2023-07-13T13:42:12;2.80;;;1.92;;
11066;SDS011;29763;50.904;5.530;2023-07-13T13:44:46;4.45;;;1.77;;
11066;SDS011;29763;50.904;5.530;2023-07-13T13:47:52;2.40;;;1.70;;
11066;SDS011;29763;50.904;5.530;2023-07-13T13:50:33;3.42;;;1.88;;
11066;SDS011;29763;50.904;5.530;2023-07-13T13:53:28;3.47;;;1.77;;
11066;SDS011;29763;50.904;5.530;2023-07-13T13:56:05;5.60;;;2.10;;
11066;SDS011;29763;50.904;5.530;2023-07-13T13:58:45;10.07;;;2.65;;
11066;SDS011;29763;50.904;5.530;2023-07-13T14:01:21;9.70;;;2.65;;
11066;SDS011;29763;50.904;5.530;2023-07-13T14:04:03;7.63;;;2.38;;
11066;SDS011;29763;50.904;5.530;2023-07-13T14:06:53;13.35;;;3.22;;
11066;SDS011;29763;50.904;5.530;2023-07-13T14:09:33;3.63;;;2.08;;
11066;SDS011;29763;50.904;5.530;2023-07-13T14:28:31;4.15;;;2.08;;
11066;SDS011;29763;50.904;5.530;2023-07-13T14:31:36;4.22;;;2.22;;
11066;SDS011;29763;50.904;5.530;2023-07-13T14:34:49;9.27;;;2.53;;
11066;SDS011;29763;50.904;5.530;2023-07-13T14:37:19;4.80;;;2.33;;
11066;SDS011;29763;50.904;5.530;2023-07-13T14:40:00;4.60;;;2.03;;
11066;SDS011;29763;50.904;5.530;2023-07-13T14:42:36;8.60;;;2.72;;
11066;SDS011;29763;50.904;5.530;2023-07-13T14:45:20;7.60;;;2.70;;
11066;SDS011;29763;50.904;5.530;2023-07-13T14:47:55;5.13;;;2.30;;
11066;SDS011;29763;50.904;5.530;2023-07-13T14:50:37;6.28;;;2.30;;
11066;SDS011;29763;50.904;5.530;2023-07-13T14:53:30;4.47;;;1.90;;
11066;SDS011;29763;50.904;5.530;2023-07-13T14:56:22;3.67;;;2.00;;
11066;SDS011;29763;50.904;5.530;2023-07-13T14:58:50;2.50;;;2.08;;
11066;SDS011;29763;50.904;5.530;2023-07-13T15:01:19;3.55;;;2.30;;
11066;SDS011;29763;50.904;5.530;2023-07-13T15:03:58;3.88;;;2.00;;
11066;SDS011;29763;50.904;5.530;2023-07-13T15:06:25;4.78;;;2.10;;
11066;SDS011;29763;50.904;5.530;2023-07-13T15:09:21;2.90;;;2.03;;
11066;SDS011;29763;50.904;5.530;2023-07-13T15:12:10;3.55;;;2.03;;
11066;SDS011;29763;50.904;5.530;2023-07-13T15:14:49;4.55;;;1.90;;
11066;SDS011;29763;50.904;5.530;2023-07-13T15:20:31;2.88;;;2.00;;
11066;SDS011;29763;50.904;5.530;2023-07-13T15:23:02;2.83;;;2.00;;
11066;SDS011;29763;50.904;5.530;2023-07-13T15:25:40;5.18;;;2.25;;
11066;SDS011;29763;50.904;5.530;2023-07-13T15:28:32;2.88;;;1.85;;
11066;SDS011;29763;50.904;5.530;2023-07-13T15:31:04;2.72;;;1.95;;
11066;SDS011;29763;50.904;5.530;2023-07-13T15:33:59;4.47;;;2.10;;
11066;SDS011;29763;50.904;5.530;2023-07-13T15:36:30;3.42;;;1.98;;
11066;SDS011;29763;50.904;5.530;2023-07-13T15:39:08;2.97;;;1.80;;
11066;SDS011;29763;50.904;5.530;2023-07-13T15:41:50;3.00;;;2.00;;
11066;SDS011;29763;50.904;5.530;2023-07-13T15:44:31;2.70;;;1.83;;
11066;SDS011;29763;50.904;5.530;2023-07-13T15:47:26;2.97;;;2.10;;
11066;SDS011;29763;50.904;5.530;2023-07-13T15:50:03;4.25;;;2.00;;
11066;SDS011;29763;50.904;5.530;2023-07-13T15:52:39;3.47;;;2.10;;
11066;SDS011;29763;50.904;5.530;2023-07-13T15:55:24;2.88;;;1.92;;
11066;SDS011;29763;50.904;5.530;2023-07-13T15:57:51;3.70;;;2.05;;
11066;SDS011;29763;50.904;5.530;2023-07-13T16:03:46;3.45;;;2.30;;
11066;SDS011;29763;50.904;5.530;2023-07-13T16:06:31;4.68;;;2.42;;
11066;SDS011;29763;50.904;5.530;2023-07-13T16:09:25;3.03;;;2.05;;
11066;SDS011;29763;50.904;5.530;2023-07-13T16:12:26;3.35;;;2.28;;
11066;SDS011;29763;50.904;5.530;2023-07-13T16:14:54;3.50;;;2.10;;
11066;SDS011;29763;50.904;5.530;2023-07-13T16:17:30;4.72;;;1.98;;
11066;SDS011;29763;50.904;5.530;2023-07-13T16:20:25;2.90;;;1.98;;
11066;SDS011;29763;50.904;5.530;2023-07-13T16:22:58;4.78;;;2.00;;
11066;SDS011;29763;50.904;5.530;2023-07-13T16:25:41;3.40;;;2.50;;
11066;SDS011;29763;50.904;5.530;2023-07-13T16:28:21;3.90;;;2.17;;
11066;SDS011;29763;50.904;5.530;2023-07-13T16:31:10;3.22;;;2.00;;
11066;SDS011;29763;50.904;5.530;2023-07-13T16:36:50;3.72;;;2.00;;
11066;SDS011;29763;50.904;5.530;2023-07-13T16:39:25;3.05;;;1.90;;
11066;SDS011;29763;50.904;5.530;2023-07-13T16:42:27;3.22;;;1.83;;
11066;SDS011;29763;50.904;5.530;2023-07-13T16:45:01;4.40;;;2.30;;
11066;SDS011;29763;50.904;5.530;2023-07-13T16:47:41;4.80;;;2.17;;
11066;SDS011;29763;50.904;5.530;2023-07-13T16:50:18;4.60;;;2.28;;
11066;SDS011;29763;50.904;5.530;2023-07-13T16:53:25;4.43;;;2.17;;
11066;SDS011;29763;50.904;5.530;2023-07-13T16:56:31;2.67;;;2.03;;
11066;SDS011;29763;50.904;5.530;2023-07-13T16:59:36;4.15;;;2.25;;
11066;SDS011;29763;50.904;5.530;2023-07-13T17:09:26;3.25;;;2.20;;
11066;SDS011;29763;50.904;5.530;2023-07-13T17:12:12;3.30;;;2.15;;
11066;SDS011;29763;50.904;5.530;2023-07-13T17:18:18;2.97;;;1.98;;
11066;SDS011;29763;50.904;5.530;2023-07-13T17:21:39;3.15;;;2.20;;
11066;SDS011;29763;50.904;5.530;2023-07-13T17:24:34;4.22;;;2.38;;
11066;SDS011;29763;50.904;5.530;2023-07-13T17:28:17;2.90;;;2.00;;
11066;SDS011;29763;50.904;5.530;2023-07-13T17:31:06;4.53;;;2.60;;
11066;SDS011;29763;50.904;5.530;2023-07-13T17:34:02;4.50;;;2.50;;
11066;SDS011;29763;50.904;5.530;2023-07-13T17:36:46;4.15;;;2.47;;
11066;SDS011;29763;50.904;5.530;2023-07-13T17:39:30;4.60;;;2.10;;
11066;SDS011;29763;50.904;5.530;2023-07-13T17:45:43;3.58;;;2.33;;
11066;SDS011;29763;50.904;5.530;2023-07-13T17:48:57;3.55;;;2.45;;
11066;SDS011;29763;50.904;5.530;2023-07-13T18:08:53;3.80;;;2.60;;
11066;SDS011;29763;50.904;5.530;2023-07-13T18:11:58;6.35;;;2.83;;
11066;SDS011;29763;50.904;5.530;2023-07-13T18:14:49;3.50;;;2.30;;
11066;SDS011;29763;50.904;5.530;2023-07-13T18:21:07;5.35;;;2.50;;
11066;SDS011;29763;50.904;5.530;2023-07-13T18:24:43;5.50;;;2.60;;
11066;SDS011;29763;50.904;5.530;2023-07-13T18:41:01;3.63;;;2.38;;
11066;SDS011;29763;50.904;5.530;2023-07-13T18:43:45;2.53;;;2.22;;
11066;SDS011;29763;50.904;5.530;2023-07-13T18:46:53;2.13;;;2.00;;
11066;SDS011;29763;50.904;5.530;2023-07-13T18:49:32;2.35;;;1.88;;
11066;SDS011;29763;50.904;5.530;2023-07-13T18:52:23;5.85;;;2.30;;
11066;SDS011;29763;50.904;5.530;2023-07-13T18:55:05;3.35;;;2.10;;
11066;SDS011;29763;50.904;5.530;2023-07-13T18:57:54;2.50;;;2.30;;
11066;SDS011;29763;50.904;5.530;2023-07-13T19:00:24;4.53;;;2.10;;
11066;SDS011;29763;50.904;5.530;2023-07-13T19:05:56;2.30;;;2.05;;
11066;SDS011;29763;50.904;5.530;2023-07-13T19:08:42;4.57;;;2.25;;
11066;SDS011;29763;50.904;5.530;2023-07-13T19:11:21;2.25;;;2.05;;
11066;SDS011;29763;50.904;5.530;2023-07-13T19:13:50;3.30;;;2.70;;
11066;SDS011;29763;50.904;5.530;2023-07-13T19:16:19;4.75;;;2.38;;
11066;SDS011;29763;50.904;5.530;2023-07-13T19:18:47;3.15;;;2.30;;
11066;SDS011;29763;50.904;5.530;2023-07-13T19:23:50;3.30;;;1.90;;
11066;SDS011;29763;50.904;5.530;2023-07-13T19:29:19;4.68;;;2.50;;
11066;SDS011;29763;50.904;5.530;2023-07-13T19:32:14;2.67;;;2.15;;
11066;SDS011;29763;50.904;5.530;2023-07-13T19:34:43;2.50;;;2.30;;
11066;SDS011;29763;50.904;5.530;2023-07-13T19:40:17;3.90;;;2.30;;
11066;SDS011;29763;50.904;5.530;2023-07-13T19:42:47;3.90;;;2.33;;
11066;SDS011;29763;50.904;5.530;2023-07-13T19:45:39;4.68;;;2.63;;
11066;SDS011;29763;50.904;5.530;2023-07-13T19:48:08;3.33;;;2.50;;
11066;SDS011;29763;50.904;5.530;2023-07-13T19:50:39;3.60;;;2.30;;
11066;SDS011;29763;50.904;5.530;2023-07-13T19:53:27;3.65;;;2.22;;
11066;SDS011;29763;50.904;5.530;2023-07-13T19:55:59;2.65;;;2.33;;
11066;SDS011;29763;50.904;5.530;2023-07-13T19:58:25;3.70;;;2.55;;
11066;SDS011;29763;50.904;5.530;2023-07-13T20:00:56;2.60;;;2.40;;
11066;SDS011;29763;50.904;5.530;2023-07-13T20:03:33;4.28;;;3.10;;
11066;SDS011;29763;50.904;5.530;2023-07-13T20:06:23;3.05;;;2.45;;
11066;SDS011;29763;50.904;5.530;2023-07-13T20:15:15;3.78;;;2.80;;
11066;SDS011;29763;50.904;5.530;2023-07-13T20:18:17;3.20;;;2.50;;
11066;SDS011;29763;50.904;5.530;2023-07-13T20:21:41;3.17;;;2.50;;
11066;SDS011;29763;50.904;5.530;2023-07-13T20:24:01;3.08;;;2.45;;
11066;SDS011;29763;50.904;5.530;2023-07-13T20:26:46;3.25;;;2.60;;
11066;SDS011;29763;50.904;5.530;2023-07-13T20:29:18;3.55;;;2.88;;
11066;SDS011;29763;50.904;5.530;2023-07-13T20:31:52;3.55;;;3.15;;
11066;SDS011;29763;50.904;5.530;2023-07-13T20:34:22;4.00;;;2.92;;
11066;SDS011;29763;50.904;5.530;2023-07-13T20:36:54;3.60;;;2.88;;